sensor_id;sensor_type;location;lat;lon;timestamp;pressure;altitude;pressure_sealevel;temperature;humidity
54546;BME280;40444;45.184;9.850;2023-02-20T17:51:42;101822.38;;;10.22;100.00
54546;BME280;40444;45.184;9.850;2023-02-20T17:54:24;101824.16;;;10.36;100.00
54546;BME280;40444;45.184;9.850;2023-02-20T17:56:53;101828.56;;;10.50;100.00
54546;BME280;40444;45.184;9.850;2023-02-20T17:59:32;101826.94;;;10.60;100.00
54546;BME280;40444;45.184;9.850;2023-02-20T18:02:12;101826.09;;;10.72;100.00
54546;BME280;40444;45.184;9.850;2023-02-20T18:05:22;101824.59;;;10.81;100.00
54546;BME280;40444;45.184;9.850;2023-02-20T18:07:54;101829.50;;;10.87;100.00
54546;BME280;40444;45.184;9.850;2023-02-20T18:10:31;101831.84;;;10.92;100.00
54546;BME280;40444;45.184;9.850;2023-02-20T18:13:08;101832.72;;;10.92;100.00
54546;BME280;40444;45.184;9.850;2023-02-20T18:15:46;101833.81;;;10.90;100.00
54546;BME280;40444;45.184;9.850;2023-02-20T18:18:49;101835.00;;;10.85;100.00
54546;BME280;40444;45.184;9.850;2023-02-20T18:21:29;101831.13;;;10.77;100.00
54546;BME280;40444;45.184;9.850;2023-02-20T18:24:09;101837.75;;;10.71;100.00
54546;BME280;40444;45.184;9.850;2023-02-20T18:26:43;101841.94;;;10.62;100.00
54546;BME280;40444;45.184;9.850;2023-02-20T18:29:26;101834.66;;;10.52;100.00
54546;BME280;40444;45.184;9.850;2023-02-20T18:31:58;101835.31;;;10.43;100.00
54546;BME280;40444;45.184;9.850;2023-02-20T18:34:34;101829.53;;;10.36;100.00
54546;BME280;40444;45.184;9.850;2023-02-20T18:37:03;101830.59;;;10.33;100.00
54546;BME280;40444;45.184;9.850;2023-02-20T18:39:31;101833.38;;;10.32;100.00
54546;BME280;40444;45.184;9.850;2023-02-20T18:42:00;101832.53;;;10.31;100.00
54546;BME280;40444;45.184;9.850;2023-02-20T18:44:28;101827.38;;;10.28;100.00
54546;BME280;40444;45.184;9.850;2023-02-20T18:46:58;101825.44;;;10.30;100.00
54546;BME280;40444;45.184;9.850;2023-02-20T18:49:27;101815.56;;;10.31;100.00
54546;BME280;40444;45.184;9.850;2023-02-20T18:51:56;101821.81;;;10.31;100.00
54546;BME280;40444;45.184;9.850;2023-02-20T18:54:26;101808.31;;;10.33;100.00
54546;BME280;40444;45.184;9.850;2023-02-20T18:57:01;101815.25;;;10.35;100.00
54546;BME280;40444;45.184;9.850;2023-02-20T18:59:30;101807.22;;;10.35;100.00
54546;BME280;40444;45.184;9.850;2023-02-20T19:02:00;101819.75;;;10.35;100.00
54546;BME280;40444;45.184;9.850;2023-02-20T19:04:33;101810.97;;;10.33;100.00
54546;BME280;40444;45.184;9.850;2023-02-20T19:07:02;101804.97;;;10.29;100.00
54546;BME280;40444;45.184;9.850;2023-02-20T19:09:32;101798.88;;;10.27;100.00
54546;BME280;40444;45.184;9.850;2023-02-20T19:12:06;101802.59;;;10.25;100.00
54546;BME280;40444;45.184;9.850;2023-02-20T19:14:36;101803.75;;;10.21;100.00
54546;BME280;40444;45.184;9.850;2023-02-20T19:17:05;101801.38;;;10.16;100.00
54546;BME280;40444;45.184;9.850;2023-02-20T19:19:35;101810.38;;;10.02;100.00
54546;BME280;40444;45.184;9.850;2023-02-20T19:22:05;101807.78;;;9.88;100.00
54546;BME280;40444;45.184;9.850;2023-02-20T19:24:37;101800.56;;;9.76;100.00
54546;BME280;40444;45.184;9.850;2023-02-20T19:27:06;101805.47;;;9.69;100.00
54546;BME280;40444;45.184;9.850;2023-02-20T19:29:34;101803.53;;;9.71;100.00
54546;BME280;40444;45.184;9.850;2023-02-20T19:32:08;101807.06;;;9.72;100.00
54546;BME280;40444;45.184;9.850;2023-02-20T19:34:37;101803.53;;;9.71;100.00
54546;BME280;40444;45.184;9.850;2023-02-20T19:37:05;101813.50;;;9.69;100.00
54546;BME280;40444;45.184;9.850;2023-02-20T19:39:34;101811.34;;;9.61;100.00
54546;BME280;40444;45.184;9.850;2023-02-20T19:42:02;101802.94;;;9.53;100.00
54546;BME280;40444;45.184;9.850;2023-02-20T19:44:30;101813.00;;;9.50;100.00
54546;BME280;40444;45.184;9.850;2023-02-20T19:46:59;101807.75;;;9.48;100.00
54546;BME280;40444;45.184;9.850;2023-02-20T19:49:27;101813.41;;;9.44;100.00
54546;BME280;40444;45.184;9.850;2023-02-20T19:51:56;101810.38;;;9.35;100.00
54546;BME280;40444;45.184;9.850;2023-02-20T19:54:26;101817.44;;;9.36;100.00
54546;BME280;40444;45.184;9.850;2023-02-20T19:57:00;101805.97;;;9.34;100.00
54546;BME280;40444;45.184;9.850;2023-02-20T19:59:30;101817.44;;;9.36;100.00
54546;BME280;40444;45.184;9.850;2023-02-20T20:01:59;101808.53;;;9.36;100.00
54546;BME280;40444;45.184;9.850;2023-02-20T20:04:29;101806.84;;;9.35;100.00
54546;BME280;40444;45.184;9.850;2023-02-20T20:07:00;101811.72;;;9.28;100.00
54546;BME280;40444;45.184;9.850;2023-02-20T20:09:30;101805.63;;;9.26;100.00
54546;BME280;40444;45.184;9.850;2023-02-20T20:12:06;101807.53;;;9.24;100.00
54546;BME280;40444;45.184;9.850;2023-02-20T20:14:56;101809.44;;;9.22;100.00
54546;BME280;40444;45.184;9.850;2023-02-20T20:17:24;101798.84;;;9.21;100.00
54546;BME280;40444;45.184;9.850;2023-02-20T20:19:53;101798.09;;;9.19;100.00
54546;BME280;40444;45.184;9.850;2023-02-20T20:22:26;101801.84;;;9.16;100.00
54546;BME280;40444;45.184;9.850;2023-02-20T20:24:55;101798.59;;;9.11;100.00
54546;BME280;40444;45.184;9.850;2023-02-20T20:27:24;101797.16;;;9.05;100.00
54546;BME280;40444;45.184;9.850;2023-02-20T20:29:52;101795.84;;;8.98;100.00
54546;BME280;40444;45.184;9.850;2023-02-20T20:32:20;101802.53;;;8.91;100.00
54546;BME280;40444;45.184;9.850;2023-02-20T20:34:50;101806.63;;;8.82;100.00
54546;BME280;40444;45.184;9.850;2023-02-20T20:37:24;101805.31;;;8.75;100.00
54546;BME280;40444;45.184;9.850;2023-02-20T20:39:57;101802.28;;;8.67;100.00
54546;BME280;40444;45.184;9.850;2023-02-20T20:42:26;101801.69;;;8.62;100.00
54546;BME280;40444;45.184;9.850;2023-02-20T20:44:56;101799.31;;;8.57;100.00
54546;BME280;40444;45.184;9.850;2023-02-20T20:47:27;101794.16;;;8.54;100.00
54546;BME280;40444;45.184;9.850;2023-02-20T20:49:57;101794.63;;;8.47;100.00
54546;BME280;40444;45.184;9.850;2023-02-20T20:52:26;101789.75;;;8.39;100.00
54546;BME280;40444;45.184;9.850;2023-02-20T20:54:56;101793.47;;;8.37;100.00
54546;BME280;40444;45.184;9.850;2023-02-20T20:57:28;101792.59;;;8.36;100.00
54546;BME280;40444;45.184;9.850;2023-02-20T20:59:57;101792.53;;;8.38;100.00
54546;BME280;40444;45.184;9.850;2023-02-20T21:02:27;101787.19;;;8.38;100.00
54546;BME280;40444;45.184;9.850;2023-02-20T21:04:56;101792.41;;;8.39;100.00
54546;BME280;40444;45.184;9.850;2023-02-20T21:07:38;101790.53;;;8.41;100.00
54546;BME280;40444;45.184;9.850;2023-02-20T21:10:08;101793.31;;;8.40;100.00
54546;BME280;40444;45.184;9.850;2023-02-20T21:12:37;101790.00;;;8.34;100.00
54546;BME280;40444;45.184;9.850;2023-02-20T21:15:07;101790.94;;;8.33;100.00
54546;BME280;40444;45.184;9.850;2023-02-20T21:17:37;101791.63;;;8.23;100.00
54546;BME280;40444;45.184;9.850;2023-02-20T21:20:14;101787.59;;;8.16;100.00
54546;BME280;40444;45.184;9.850;2023-02-20T21:22:42;101791.31;;;8.13;100.00
54546;BME280;40444;45.184;9.850;2023-02-20T21:25:11;101783.66;;;8.07;100.00
54546;BME280;40444;45.184;9.850;2023-02-20T21:27:39;101781.84;;;8.07;100.00
54546;BME280;40444;45.184;9.850;2023-02-20T21:30:08;101783.59;;;8.08;100.00
54546;BME280;40444;45.184;9.850;2023-02-20T21:32:37;101781.69;;;8.10;100.00
54546;BME280;40444;45.184;9.850;2023-02-20T21:35:05;101782.63;;;8.09;100.00
54546;BME280;40444;45.184;9.850;2023-02-20T21:37:35;101776.50;;;8.07;100.00
54546;BME280;40444;45.184;9.850;2023-02-20T21:40:04;101780.03;;;8.08;100.00
54546;BME280;40444;45.184;9.850;2023-02-20T21:42:32;101770.53;;;8.04;100.00
54546;BME280;40444;45.184;9.850;2023-02-20T21:45:19;101770.69;;;8.01;100.00
54546;BME280;40444;45.184;9.850;2023-02-20T21:47:47;101774.50;;;7.97;100.00
54546;BME280;40444;45.184;9.850;2023-02-20T21:50:17;101768.47;;;7.93;100.00
54546;BME280;40444;45.184;9.850;2023-02-20T21:52:46;101765.13;;;7.90;100.00
54546;BME280;40444;45.184;9.850;2023-02-20T21:55:16;101768.19;;;7.83;100.00
54546;BME280;40444;45.184;9.850;2023-02-20T21:57:44;101766.75;;;7.78;100.00
54546;BME280;40444;45.184;9.850;2023-02-20T22:00:13;101767.94;;;7.72;100.00
54546;BME280;40444;45.184;9.850;2023-02-20T22:02:42;101760.41;;;7.65;100.00
54546;BME280;40444;45.184;9.850;2023-02-20T22:05:11;101762.56;;;7.58;100.00
54546;BME280;40444;45.184;9.850;2023-02-20T22:07:40;101755.69;;;7.54;100.00
54546;BME280;40444;45.184;9.850;2023-02-20T22:10:26;101750.56;;;7.51;100.00
54546;BME280;40444;45.184;9.850;2023-02-20T22:13:13;101758.63;;;7.49;100.00
54546;BME280;40444;45.184;9.850;2023-02-20T22:16:00;101755.19;;;7.47;100.00
54546;BME280;40444;45.184;9.850;2023-02-20T22:18:47;101758.63;;;7.49;100.00
54546;BME280;40444;45.184;9.850;2023-02-20T22:21:34;101749.88;;;7.47;100.00
54546;BME280;40444;45.184;9.850;2023-02-20T22:24:21;101746.25;;;7.48;100.00
54546;BME280;40444;45.184;9.850;2023-02-20T22:27:08;101741.00;;;7.47;100.00
54546;BME280;40444;45.184;9.850;2023-02-20T22:29:55;101740.22;;;7.45;100.00
54546;BME280;40444;45.184;9.850;2023-02-20T22:32:42;101743.84;;;7.44;100.00
54546;BME280;40444;45.184;9.850;2023-02-20T22:35:29;101735.94;;;7.42;100.00
54546;BME280;40444;45.184;9.850;2023-02-20T22:38:16;101738.69;;;7.41;100.00
54546;BME280;40444;45.184;9.850;2023-02-20T22:41:04;101731.81;;;7.37;100.00
54546;BME280;40444;45.184;9.850;2023-02-20T22:43:51;101732.00;;;7.33;100.00
54546;BME280;40444;45.184;9.850;2023-02-20T22:46:38;101737.50;;;7.30;100.00
54546;BME280;40444;45.184;9.850;2023-02-20T22:49:24;101728.81;;;7.27;100.00
54546;BME280;40444;45.184;9.850;2023-02-20T22:52:11;101731.69;;;7.24;100.00
54546;BME280;40444;45.184;9.850;2023-02-20T22:54:58;101725.56;;;7.22;100.00
54546;BME280;40444;45.184;9.850;2023-02-20T22:57:45;101725.56;;;7.22;100.00
54546;BME280;40444;45.184;9.850;2023-02-20T23:00:32;101714.03;;;7.21;100.00
54546;BME280;40444;45.184;9.850;2023-02-20T23:03:19;101721.19;;;7.21;100.00
54546;BME280;40444;45.184;9.850;2023-02-20T23:06:06;101719.66;;;7.17;100.00
54546;BME280;40444;45.184;9.850;2023-02-20T23:08:53;101714.56;;;7.12;100.00
54546;BME280;40444;45.184;9.850;2023-02-20T23:11:40;101717.41;;;7.09;100.00
54546;BME280;40444;45.184;9.850;2023-02-20T23:14:27;101717.59;;;7.06;100.00
54546;BME280;40444;45.184;9.850;2023-02-20T23:17:14;101717.66;;;7.04;100.00
54546;BME280;40444;45.184;9.850;2023-02-20T23:20:07;101716.91;;;7.02;100.00
54546;BME280;40444;45.184;9.850;2023-02-20T23:22:54;101705.41;;;7.02;100.00
54546;BME280;40444;45.184;9.850;2023-02-20T23:25:42;101703.50;;;7.04;100.00
54546;BME280;40444;45.184;9.850;2023-02-20T23:28:29;101711.50;;;7.04;100.00
54546;BME280;40444;45.184;9.850;2023-02-20T23:31:17;101706.25;;;7.02;100.00
54546;BME280;40444;45.184;9.850;2023-02-20T23:34:03;101711.84;;;6.98;100.00
54546;BME280;40444;45.184;9.850;2023-02-20T23:36:52;101708.59;;;6.93;100.00
54546;BME280;40444;45.184;9.850;2023-02-20T23:39:38;101705.91;;;6.93;100.00
54546;BME280;40444;45.184;9.850;2023-02-20T23:42:25;101705.06;;;6.92;100.00
54546;BME280;40444;45.184;9.850;2023-02-20T23:45:11;101703.31;;;6.91;100.00
54546;BME280;40444;45.184;9.850;2023-02-20T23:47:58;101697.13;;;6.91;100.00
54546;BME280;40444;45.184;9.850;2023-02-20T23:50:45;101696.38;;;6.89;100.00
54546;BME280;40444;45.184;9.850;2023-02-20T23:53:36;101692.16;;;6.84;100.00
54546;BME280;40444;45.184;9.850;2023-02-20T23:56:23;101690.63;;;6.80;100.00
54546;BME280;40444;45.184;9.850;2023-02-20T23:59:11;101685.56;;;6.76;100.00
